sensor_id;sensor_type;location;lat;lon;timestamp;P1;durP1;ratioP1;P2;durP2;ratioP2
11431;SDS011;5772;50.940;6.782;2023-03-08T00:02:11;36.07;;;34.20;;
11431;SDS011;5772;50.940;6.782;2023-03-08T00:04:38;35.57;;;33.73;;
11431;SDS011;5772;50.940;6.782;2023-03-08T00:07:03;36.20;;;34.50;;
11431;SDS011;5772;50.940;6.782;2023-03-08T00:09:28;35.27;;;33.03;;
11431;SDS011;5772;50.940;6.782;2023-03-08T00:11:54;35.33;;;33.70;;
11431;SDS011;5772;50.940;6.782;2023-03-08T00:14:19;36.30;;;34.53;;
11431;SDS011;5772;50.940;6.782;2023-03-08T00:16:44;36.20;;;33.90;;
11431;SDS011;5772;50.940;6.782;2023-03-08T00:19:10;36.30;;;34.20;;
11431;SDS011;5772;50.940;6.782;2023-03-08T00:21:36;37.90;;;36.20;;
11431;SDS011;5772;50.940;6.782;2023-03-08T00:24:02;35.23;;;33.57;;
11431;SDS011;5772;50.940;6.782;2023-03-08T00:26:27;35.97;;;34.27;;
11431;SDS011;5772;50.940;6.782;2023-03-08T00:28:53;37.10;;;35.27;;
11431;SDS011;5772;50.940;6.782;2023-03-08T00:31:18;36.57;;;34.83;;
11431;SDS011;5772;50.940;6.782;2023-03-08T00:33:44;40.33;;;38.43;;
11431;SDS011;5772;50.940;6.782;2023-03-08T00:36:10;38.63;;;36.80;;
11431;SDS011;5772;50.940;6.782;2023-03-08T00:38:39;37.47;;;35.57;;
11431;SDS011;5772;50.940;6.782;2023-03-08T00:41:05;39.33;;;37.57;;
11431;SDS011;5772;50.940;6.782;2023-03-08T00:43:30;40.57;;;38.53;;
11431;SDS011;5772;50.940;6.782;2023-03-08T00:45:56;40.17;;;38.27;;
11431;SDS011;5772;50.940;6.782;2023-03-08T00:48:22;39.27;;;37.33;;
11431;SDS011;5772;50.940;6.782;2023-03-08T00:50:47;40.83;;;38.73;;
11431;SDS011;5772;50.940;6.782;2023-03-08T00:53:13;42.57;;;40.67;;
11431;SDS011;5772;50.940;6.782;2023-03-08T00:55:39;42.13;;;40.03;;
11431;SDS011;5772;50.940;6.782;2023-03-08T00:58:12;44.63;;;42.57;;
11431;SDS011;5772;50.940;6.782;2023-03-08T01:00:37;44.97;;;42.90;;
11431;SDS011;5772;50.940;6.782;2023-03-08T01:03:02;46.13;;;43.67;;
11431;SDS011;5772;50.940;6.782;2023-03-08T01:05:28;45.83;;;43.63;;
11431;SDS011;5772;50.940;6.782;2023-03-08T01:07:54;44.53;;;42.40;;
11431;SDS011;5772;50.940;6.782;2023-03-08T01:10:19;46.60;;;44.47;;
11431;SDS011;5772;50.940;6.782;2023-03-08T01:12:46;45.73;;;43.70;;
11431;SDS011;5772;50.940;6.782;2023-03-08T01:15:11;47.93;;;45.83;;
11431;SDS011;5772;50.940;6.782;2023-03-08T01:17:37;45.33;;;43.27;;
11431;SDS011;5772;50.940;6.782;2023-03-08T01:20:02;46.90;;;44.87;;
11431;SDS011;5772;50.940;6.782;2023-03-08T01:22:28;50.17;;;47.87;;
11431;SDS011;5772;50.940;6.782;2023-03-08T01:24:53;47.57;;;45.37;;
11431;SDS011;5772;50.940;6.782;2023-03-08T01:27:19;49.20;;;46.73;;
11431;SDS011;5772;50.940;6.782;2023-03-08T01:29:45;49.13;;;46.83;;
11431;SDS011;5772;50.940;6.782;2023-03-08T01:32:11;47.70;;;45.50;;
11431;SDS011;5772;50.940;6.782;2023-03-08T01:34:36;48.90;;;46.70;;
11431;SDS011;5772;50.940;6.782;2023-03-08T01:37:02;48.33;;;46.13;;
11431;SDS011;5772;50.940;6.782;2023-03-08T01:39:28;50.17;;;47.83;;
11431;SDS011;5772;50.940;6.782;2023-03-08T01:41:53;50.63;;;48.20;;
11431;SDS011;5772;50.940;6.782;2023-03-08T01:44:19;50.07;;;47.73;;
11431;SDS011;5772;50.940;6.782;2023-03-08T01:46:46;52.43;;;50.00;;
11431;SDS011;5772;50.940;6.782;2023-03-08T01:49:12;55.53;;;53.03;;
11431;SDS011;5772;50.940;6.782;2023-03-08T01:51:39;53.57;;;51.20;;
11431;SDS011;5772;50.940;6.782;2023-03-08T01:54:08;53.03;;;50.63;;
11431;SDS011;5772;50.940;6.782;2023-03-08T01:56:35;52.10;;;49.80;;
11431;SDS011;5772;50.940;6.782;2023-03-08T01:59:01;54.77;;;52.23;;
11431;SDS011;5772;50.940;6.782;2023-03-08T02:01:27;53.23;;;50.63;;
11431;SDS011;5772;50.940;6.782;2023-03-08T02:03:54;55.67;;;53.17;;
11431;SDS011;5772;50.940;6.782;2023-03-08T02:06:20;55.43;;;53.07;;
11431;SDS011;5772;50.940;6.782;2023-03-08T02:08:45;56.27;;;53.80;;
11431;SDS011;5772;50.940;6.782;2023-03-08T02:11:11;56.97;;;54.43;;
11431;SDS011;5772;50.940;6.782;2023-03-08T02:13:38;58.57;;;56.00;;
11431;SDS011;5772;50.940;6.782;2023-03-08T02:16:03;55.30;;;52.93;;
11431;SDS011;5772;50.940;6.782;2023-03-08T02:18:30;53.97;;;51.60;;
11431;SDS011;5772;50.940;6.782;2023-03-08T02:20:57;57.30;;;54.83;;
11431;SDS011;5772;50.940;6.782;2023-03-08T02:23:24;56.13;;;53.77;;
11431;SDS011;5772;50.940;6.782;2023-03-08T02:25:50;57.23;;;54.70;;
11431;SDS011;5772;50.940;6.782;2023-03-08T02:28:16;57.13;;;54.27;;
11431;SDS011;5772;50.940;6.782;2023-03-08T02:30:42;61.23;;;58.47;;
11431;SDS011;5772;50.940;6.782;2023-03-08T02:33:07;54.87;;;52.40;;
11431;SDS011;5772;50.940;6.782;2023-03-08T02:35:35;56.77;;;54.47;;
11431;SDS011;5772;50.940;6.782;2023-03-08T02:38:01;59.03;;;56.37;;
11431;SDS011;5772;50.940;6.782;2023-03-08T02:40:27;58.93;;;56.13;;
11431;SDS011;5772;50.940;6.782;2023-03-08T02:42:53;58.90;;;56.30;;
11431;SDS011;5772;50.940;6.782;2023-03-08T02:45:18;58.33;;;55.63;;
11431;SDS011;5772;50.940;6.782;2023-03-08T02:47:43;57.90;;;55.33;;
11431;SDS011;5772;50.940;6.782;2023-03-08T02:50:09;59.30;;;56.67;;
11431;SDS011;5772;50.940;6.782;2023-03-08T02:52:35;59.83;;;57.10;;
11431;SDS011;5772;50.940;6.782;2023-03-08T02:55:00;61.17;;;58.47;;
11431;SDS011;5772;50.940;6.782;2023-03-08T02:57:27;58.93;;;56.27;;
11431;SDS011;5772;50.940;6.782;2023-03-08T02:59:52;60.40;;;57.70;;
11431;SDS011;5772;50.940;6.782;2023-03-08T03:02:17;60.83;;;58.13;;
11431;SDS011;5772;50.940;6.782;2023-03-08T03:04:43;63.93;;;61.20;;
11431;SDS011;5772;50.940;6.782;2023-03-08T03:07:08;61.27;;;58.67;;
11431;SDS011;5772;50.940;6.782;2023-03-08T03:09:34;62.43;;;59.77;;
11431;SDS011;5772;50.940;6.782;2023-03-08T03:11:59;60.67;;;58.00;;
11431;SDS011;5772;50.940;6.782;2023-03-08T03:14:27;63.70;;;60.97;;
11431;SDS011;5772;50.940;6.782;2023-03-08T03:16:52;62.17;;;59.47;;
11431;SDS011;5772;50.940;6.782;2023-03-08T03:19:18;61.40;;;58.40;;
11431;SDS011;5772;50.940;6.782;2023-03-08T03:21:43;62.60;;;59.87;;
11431;SDS011;5772;50.940;6.782;2023-03-08T03:24:08;62.83;;;60.10;;
11431;SDS011;5772;50.940;6.782;2023-03-08T03:26:34;65.80;;;62.87;;
11431;SDS011;5772;50.940;6.782;2023-03-08T03:28:59;61.63;;;59.03;;
11431;SDS011;5772;50.940;6.782;2023-03-08T03:31:26;62.93;;;60.23;;
11431;SDS011;5772;50.940;6.782;2023-03-08T03:33:52;63.77;;;60.80;;
11431;SDS011;5772;50.940;6.782;2023-03-08T03:36:18;66.90;;;63.33;;
11431;SDS011;5772;50.940;6.782;2023-03-08T03:38:44;66.00;;;63.03;;
11431;SDS011;5772;50.940;6.782;2023-03-08T03:41:11;66.77;;;63.77;;
11431;SDS011;5772;50.940;6.782;2023-03-08T03:43:37;65.73;;;62.73;;
11431;SDS011;5772;50.940;6.782;2023-03-08T03:46:04;67.10;;;64.20;;
11431;SDS011;5772;50.940;6.782;2023-03-08T03:48:32;65.27;;;62.27;;
11431;SDS011;5772;50.940;6.782;2023-03-08T03:50:58;65.70;;;62.50;;
11431;SDS011;5772;50.940;6.782;2023-03-08T03:53:26;65.57;;;62.60;;
11431;SDS011;5772;50.940;6.782;2023-03-08T03:55:51;64.67;;;61.67;;
11431;SDS011;5772;50.940;6.782;2023-03-08T03:58:16;67.07;;;63.73;;
11431;SDS011;5772;50.940;6.782;2023-03-08T04:00:42;68.90;;;65.47;;
11431;SDS011;5772;50.940;6.782;2023-03-08T04:03:07;69.27;;;65.93;;
11431;SDS011;5772;50.940;6.782;2023-03-08T04:05:34;70.53;;;67.23;;
11431;SDS011;5772;50.940;6.782;2023-03-08T04:07:59;69.53;;;66.23;;
11431;SDS011;5772;50.940;6.782;2023-03-08T04:10:25;69.13;;;65.67;;
11431;SDS011;5772;50.940;6.782;2023-03-08T04:12:50;68.10;;;64.57;;
11431;SDS011;5772;50.940;6.782;2023-03-08T04:15:16;68.77;;;65.37;;
11431;SDS011;5772;50.940;6.782;2023-03-08T04:17:42;64.57;;;61.37;;
11431;SDS011;5772;50.940;6.782;2023-03-08T04:20:08;68.60;;;65.17;;
11431;SDS011;5772;50.940;6.782;2023-03-08T04:22:36;67.00;;;63.40;;
11431;SDS011;5772;50.940;6.782;2023-03-08T04:25:02;67.97;;;64.27;;
11431;SDS011;5772;50.940;6.782;2023-03-08T04:27:27;68.73;;;65.37;;
11431;SDS011;5772;50.940;6.782;2023-03-08T04:29:53;67.80;;;64.30;;
11431;SDS011;5772;50.940;6.782;2023-03-08T04:32:18;66.47;;;62.87;;
11431;SDS011;5772;50.940;6.782;2023-03-08T04:34:43;64.70;;;61.17;;
11431;SDS011;5772;50.940;6.782;2023-03-08T04:37:09;60.37;;;57.27;;
11431;SDS011;5772;50.940;6.782;2023-03-08T04:39:36;53.70;;;50.57;;
11431;SDS011;5772;50.940;6.782;2023-03-08T04:42:01;46.37;;;43.77;;
11431;SDS011;5772;50.940;6.782;2023-03-08T04:44:27;42.30;;;39.67;;
11431;SDS011;5772;50.940;6.782;2023-03-08T04:46:52;40.17;;;37.40;;
11431;SDS011;5772;50.940;6.782;2023-03-08T04:49:18;35.77;;;33.60;;
11431;SDS011;5772;50.940;6.782;2023-03-08T04:51:43;37.50;;;35.27;;
11431;SDS011;5772;50.940;6.782;2023-03-08T04:54:08;34.67;;;32.53;;
11431;SDS011;5772;50.940;6.782;2023-03-08T04:56:35;36.70;;;34.57;;
11431;SDS011;5772;50.940;6.782;2023-03-08T04:59:01;35.67;;;33.57;;
11431;SDS011;5772;50.940;6.782;2023-03-08T05:01:28;36.50;;;34.20;;
11431;SDS011;5772;50.940;6.782;2023-03-08T05:03:53;38.13;;;36.03;;
11431;SDS011;5772;50.940;6.782;2023-03-08T05:06:19;40.53;;;38.23;;
11431;SDS011;5772;50.940;6.782;2023-03-08T05:08:45;42.00;;;39.60;;
11431;SDS011;5772;50.940;6.782;2023-03-08T05:11:11;44.63;;;41.70;;
11431;SDS011;5772;50.940;6.782;2023-03-08T05:13:42;42.33;;;39.63;;
11431;SDS011;5772;50.940;6.782;2023-03-08T05:16:08;40.27;;;38.00;;
11431;SDS011;5772;50.940;6.782;2023-03-08T05:18:33;40.90;;;38.30;;
11431;SDS011;5772;50.940;6.782;2023-03-08T05:21:00;39.77;;;37.17;;
11431;SDS011;5772;50.940;6.782;2023-03-08T05:23:27;39.03;;;36.27;;
11431;SDS011;5772;50.940;6.782;2023-03-08T05:25:53;39.20;;;37.03;;
11431;SDS011;5772;50.940;6.782;2023-03-08T05:28:20;37.63;;;35.27;;
11431;SDS011;5772;50.940;6.782;2023-03-08T05:30:47;36.97;;;34.40;;
11431;SDS011;5772;50.940;6.782;2023-03-08T05:33:13;37.53;;;35.33;;
11431;SDS011;5772;50.940;6.782;2023-03-08T05:35:38;38.60;;;36.20;;
11431;SDS011;5772;50.940;6.782;2023-03-08T05:38:03;37.63;;;35.33;;
11431;SDS011;5772;50.940;6.782;2023-03-08T05:40:29;37.30;;;35.17;;
11431;SDS011;5772;50.940;6.782;2023-03-08T05:42:54;37.30;;;34.97;;
11431;SDS011;5772;50.940;6.782;2023-03-08T05:45:19;39.53;;;37.27;;
11431;SDS011;5772;50.940;6.782;2023-03-08T05:47:46;41.27;;;38.77;;
11431;SDS011;5772;50.940;6.782;2023-03-08T05:50:12;40.13;;;37.87;;
11431;SDS011;5772;50.940;6.782;2023-03-08T05:52:37;41.00;;;38.60;;
11431;SDS011;5772;50.940;6.782;2023-03-08T05:55:03;43.23;;;40.60;;
11431;SDS011;5772;50.940;6.782;2023-03-08T05:57:29;45.93;;;43.57;;
11431;SDS011;5772;50.940;6.782;2023-03-08T05:59:54;40.73;;;38.73;;
11431;SDS011;5772;50.940;6.782;2023-03-08T06:02:19;42.60;;;40.33;;
11431;SDS011;5772;50.940;6.782;2023-03-08T06:04:46;44.73;;;42.03;;
11431;SDS011;5772;50.940;6.782;2023-03-08T06:07:11;42.47;;;40.00;;
11431;SDS011;5772;50.940;6.782;2023-03-08T06:09:37;42.17;;;39.73;;
11431;SDS011;5772;50.940;6.782;2023-03-08T06:12:02;43.13;;;40.73;;
11431;SDS011;5772;50.940;6.782;2023-03-08T06:14:28;41.13;;;38.93;;
11431;SDS011;5772;50.940;6.782;2023-03-08T06:16:53;41.43;;;39.23;;
11431;SDS011;5772;50.940;6.782;2023-03-08T06:19:18;40.90;;;38.77;;
11431;SDS011;5772;50.940;6.782;2023-03-08T06:21:45;40.07;;;37.90;;
11431;SDS011;5772;50.940;6.782;2023-03-08T06:24:10;42.33;;;40.03;;
11431;SDS011;5772;50.940;6.782;2023-03-08T06:26:36;43.57;;;40.97;;
11431;SDS011;5772;50.940;6.782;2023-03-08T06:29:01;42.57;;;40.17;;
11431;SDS011;5772;50.940;6.782;2023-03-08T06:31:27;43.27;;;40.53;;
11431;SDS011;5772;50.940;6.782;2023-03-08T06:33:52;46.90;;;43.80;;
11431;SDS011;5772;50.940;6.782;2023-03-08T06:36:18;45.23;;;42.73;;
11431;SDS011;5772;50.940;6.782;2023-03-08T06:38:46;45.83;;;42.93;;
11431;SDS011;5772;50.940;6.782;2023-03-08T06:41:12;42.63;;;40.03;;
11431;SDS011;5772;50.940;6.782;2023-03-08T06:43:39;45.00;;;42.53;;
11431;SDS011;5772;50.940;6.782;2023-03-08T06:46:05;44.57;;;41.77;;
11431;SDS011;5772;50.940;6.782;2023-03-08T06:48:32;44.90;;;42.40;;
11431;SDS011;5772;50.940;6.782;2023-03-08T06:50:58;44.03;;;41.33;;
11431;SDS011;5772;50.940;6.782;2023-03-08T06:53:23;43.87;;;41.33;;
11431;SDS011;5772;50.940;6.782;2023-03-08T06:55:50;45.00;;;42.13;;
11431;SDS011;5772;50.940;6.782;2023-03-08T06:58:15;44.13;;;41.40;;
11431;SDS011;5772;50.940;6.782;2023-03-08T07:00:40;45.03;;;42.43;;
11431;SDS011;5772;50.940;6.782;2023-03-08T07:03:06;43.43;;;40.90;;
11431;SDS011;5772;50.940;6.782;2023-03-08T07:05:31;42.53;;;40.00;;
11431;SDS011;5772;50.940;6.782;2023-03-08T07:07:57;45.43;;;42.87;;
11431;SDS011;5772;50.940;6.782;2023-03-08T07:10:22;42.30;;;40.17;;
11431;SDS011;5772;50.940;6.782;2023-03-08T07:12:49;42.10;;;39.93;;
11431;SDS011;5772;50.940;6.782;2023-03-08T07:15:15;44.67;;;42.13;;
11431;SDS011;5772;50.940;6.782;2023-03-08T07:17:42;43.30;;;40.63;;
11431;SDS011;5772;50.940;6.782;2023-03-08T07:20:08;43.90;;;41.23;;
11431;SDS011;5772;50.940;6.782;2023-03-08T07:22:34;47.83;;;45.20;;
11431;SDS011;5772;50.940;6.782;2023-03-08T07:24:59;45.90;;;43.40;;
11431;SDS011;5772;50.940;6.782;2023-03-08T07:27:24;48.27;;;45.77;;
11431;SDS011;5772;50.940;6.782;2023-03-08T07:29:51;49.23;;;46.53;;
11431;SDS011;5772;50.940;6.782;2023-03-08T07:32:17;52.83;;;50.13;;
11431;SDS011;5772;50.940;6.782;2023-03-08T07:34:42;57.40;;;54.40;;
11431;SDS011;5772;50.940;6.782;2023-03-08T07:37:10;58.77;;;55.43;;
11431;SDS011;5772;50.940;6.782;2023-03-08T07:39:35;60.00;;;56.90;;
11431;SDS011;5772;50.940;6.782;2023-03-08T07:42:01;66.97;;;63.70;;
11431;SDS011;5772;50.940;6.782;2023-03-08T07:44:26;72.03;;;68.57;;
11431;SDS011;5772;50.940;6.782;2023-03-08T07:46:53;78.73;;;75.10;;
11431;SDS011;5772;50.940;6.782;2023-03-08T07:49:18;80.97;;;76.97;;
11431;SDS011;5772;50.940;6.782;2023-03-08T07:51:43;81.33;;;77.33;;
11431;SDS011;5772;50.940;6.782;2023-03-08T07:54:09;82.57;;;78.43;;
11431;SDS011;5772;50.940;6.782;2023-03-08T07:56:35;82.43;;;78.57;;
11431;SDS011;5772;50.940;6.782;2023-03-08T07:59:00;84.47;;;80.27;;
11431;SDS011;5772;50.940;6.782;2023-03-08T08:01:26;83.70;;;79.67;;
11431;SDS011;5772;50.940;6.782;2023-03-08T08:03:52;85.17;;;80.73;;
11431;SDS011;5772;50.940;6.782;2023-03-08T08:06:18;85.80;;;81.73;;
11431;SDS011;5772;50.940;6.782;2023-03-08T08:08:43;88.53;;;84.03;;
11431;SDS011;5772;50.940;6.782;2023-03-08T08:11:09;86.10;;;81.73;;
11431;SDS011;5772;50.940;6.782;2023-03-08T08:13:35;81.10;;;77.10;;
11431;SDS011;5772;50.940;6.782;2023-03-08T08:16:01;85.47;;;81.23;;
11431;SDS011;5772;50.940;6.782;2023-03-08T08:18:26;84.47;;;80.37;;
11431;SDS011;5772;50.940;6.782;2023-03-08T08:20:59;82.27;;;78.17;;
11431;SDS011;5772;50.940;6.782;2023-03-08T08:23:25;80.87;;;77.13;;
11431;SDS011;5772;50.940;6.782;2023-03-08T08:25:51;83.00;;;78.97;;
11431;SDS011;5772;50.940;6.782;2023-03-08T08:28:16;80.23;;;76.23;;
11431;SDS011;5772;50.940;6.782;2023-03-08T08:30:42;80.07;;;76.13;;
11431;SDS011;5772;50.940;6.782;2023-03-08T08:33:07;79.93;;;75.80;;
11431;SDS011;5772;50.940;6.782;2023-03-08T08:35:32;76.13;;;72.10;;
11431;SDS011;5772;50.940;6.782;2023-03-08T08:37:59;76.83;;;72.90;;
11431;SDS011;5772;50.940;6.782;2023-03-08T08:40:24;77.30;;;73.30;;
11431;SDS011;5772;50.940;6.782;2023-03-08T08:42:50;72.97;;;69.40;;
11431;SDS011;5772;50.940;6.782;2023-03-08T08:45:15;73.10;;;69.27;;
11431;SDS011;5772;50.940;6.782;2023-03-08T08:47:41;72.50;;;69.00;;
11431;SDS011;5772;50.940;6.782;2023-03-08T08:50:06;72.03;;;68.23;;
11431;SDS011;5772;50.940;6.782;2023-03-08T08:52:32;69.77;;;66.37;;
11431;SDS011;5772;50.940;6.782;2023-03-08T08:54:59;69.30;;;65.67;;
11431;SDS011;5772;50.940;6.782;2023-03-08T08:57:24;68.70;;;65.20;;
11431;SDS011;5772;50.940;6.782;2023-03-08T08:59:50;68.10;;;64.67;;
11431;SDS011;5772;50.940;6.782;2023-03-08T09:02:15;64.97;;;61.43;;
11431;SDS011;5772;50.940;6.782;2023-03-08T09:04:40;63.03;;;59.50;;
11431;SDS011;5772;50.940;6.782;2023-03-08T09:07:06;63.53;;;60.30;;
11431;SDS011;5772;50.940;6.782;2023-03-08T09:09:31;59.33;;;56.20;;
11431;SDS011;5772;50.940;6.782;2023-03-08T09:11:58;59.07;;;55.73;;
11431;SDS011;5772;50.940;6.782;2023-03-08T09:14:23;60.33;;;56.67;;
11431;SDS011;5772;50.940;6.782;2023-03-08T09:16:48;57.63;;;54.10;;
11431;SDS011;5772;50.940;6.782;2023-03-08T09:19:14;57.47;;;54.13;;
11431;SDS011;5772;50.940;6.782;2023-03-08T09:21:39;54.53;;;51.63;;
11431;SDS011;5772;50.940;6.782;2023-03-08T09:24:05;54.37;;;51.13;;
11431;SDS011;5772;50.940;6.782;2023-03-08T09:26:31;50.43;;;47.40;;
11431;SDS011;5772;50.940;6.782;2023-03-08T09:28:58;50.43;;;47.33;;
11431;SDS011;5772;50.940;6.782;2023-03-08T09:31:24;49.87;;;46.77;;
11431;SDS011;5772;50.940;6.782;2023-03-08T09:33:50;50.47;;;47.63;;
11431;SDS011;5772;50.940;6.782;2023-03-08T09:36:15;49.97;;;47.03;;
11431;SDS011;5772;50.940;6.782;2023-03-08T09:38:41;45.30;;;42.43;;
11431;SDS011;5772;50.940;6.782;2023-03-08T09:41:11;45.23;;;42.73;;
11431;SDS011;5772;50.940;6.782;2023-03-08T09:43:59;45.80;;;43.03;;
11431;SDS011;5772;50.940;6.782;2023-03-08T09:46:31;47.77;;;44.77;;
11431;SDS011;5772;50.940;6.782;2023-03-08T09:48:59;50.97;;;47.03;;
11431;SDS011;5772;50.940;6.782;2023-03-08T09:51:27;47.13;;;44.17;;
11431;SDS011;5772;50.940;6.782;2023-03-08T09:53:58;48.67;;;45.63;;
11431;SDS011;5772;50.940;6.782;2023-03-08T09:56:30;51.87;;;48.27;;
11431;SDS011;5772;50.940;6.782;2023-03-08T09:59:01;51.77;;;48.20;;
11431;SDS011;5772;50.940;6.782;2023-03-08T10:01:32;49.17;;;46.00;;
11431;SDS011;5772;50.940;6.782;2023-03-08T10:04:06;51.43;;;48.43;;
11431;SDS011;5772;50.940;6.782;2023-03-08T10:06:38;56.07;;;52.63;;
11431;SDS011;5772;50.940;6.782;2023-03-08T10:09:11;56.57;;;52.90;;
11431;SDS011;5772;50.940;6.782;2023-03-08T10:11:46;59.10;;;55.20;;
11431;SDS011;5772;50.940;6.782;2023-03-08T10:14:18;55.73;;;52.17;;
11431;SDS011;5772;50.940;6.782;2023-03-08T10:16:47;57.80;;;53.97;;
11431;SDS011;5772;50.940;6.782;2023-03-08T10:19:16;54.50;;;51.37;;
11431;SDS011;5772;50.940;6.782;2023-03-08T10:21:45;51.10;;;48.07;;
11431;SDS011;5772;50.940;6.782;2023-03-08T10:24:13;49.70;;;46.70;;
11431;SDS011;5772;50.940;6.782;2023-03-08T10:26:40;46.90;;;43.70;;
11431;SDS011;5772;50.940;6.782;2023-03-08T10:29:07;45.87;;;42.60;;
11431;SDS011;5772;50.940;6.782;2023-03-08T10:31:35;46.57;;;43.43;;
11431;SDS011;5772;50.940;6.782;2023-03-08T10:34:02;44.30;;;41.67;;
11431;SDS011;5772;50.940;6.782;2023-03-08T10:36:30;44.47;;;41.27;;
11431;SDS011;5772;50.940;6.782;2023-03-08T10:38:57;41.13;;;38.23;;
11431;SDS011;5772;50.940;6.782;2023-03-08T10:41:24;42.53;;;39.60;;
11431;SDS011;5772;50.940;6.782;2023-03-08T10:43:50;42.43;;;39.73;;
11431;SDS011;5772;50.940;6.782;2023-03-08T10:46:17;43.50;;;40.30;;
11431;SDS011;5772;50.940;6.782;2023-03-08T10:48:45;43.67;;;40.77;;
11431;SDS011;5772;50.940;6.782;2023-03-08T10:51:14;43.13;;;40.50;;
11431;SDS011;5772;50.940;6.782;2023-03-08T10:53:50;41.97;;;38.93;;
11431;SDS011;5772;50.940;6.782;2023-03-08T10:56:20;41.07;;;38.33;;
11431;SDS011;5772;50.940;6.782;2023-03-08T10:58:48;41.47;;;38.77;;
11431;SDS011;5772;50.940;6.782;2023-03-08T11:01:22;40.60;;;37.70;;
11431;SDS011;5772;50.940;6.782;2023-03-08T11:03:57;42.80;;;39.60;;
11431;SDS011;5772;50.940;6.782;2023-03-08T11:06:26;42.63;;;39.63;;
11431;SDS011;5772;50.940;6.782;2023-03-08T11:08:53;44.60;;;41.17;;
11431;SDS011;5772;50.940;6.782;2023-03-08T11:11:19;42.40;;;39.50;;
11431;SDS011;5772;50.940;6.782;2023-03-08T11:13:45;43.00;;;40.20;;
11431;SDS011;5772;50.940;6.782;2023-03-08T11:19:22;43.00;;;39.90;;
11431;SDS011;5772;50.940;6.782;2023-03-08T11:21:54;42.63;;;39.63;;
11431;SDS011;5772;50.940;6.782;2023-03-08T11:24:29;43.80;;;40.77;;
11431;SDS011;5772;50.940;6.782;2023-03-08T11:27:08;43.80;;;40.63;;
11431;SDS011;5772;50.940;6.782;2023-03-08T11:29:41;45.23;;;41.67;;
11431;SDS011;5772;50.940;6.782;2023-03-08T11:32:17;43.07;;;40.03;;
11431;SDS011;5772;50.940;6.782;2023-03-08T11:34:52;43.23;;;40.30;;
11431;SDS011;5772;50.940;6.782;2023-03-08T11:37:24;43.27;;;40.07;;
11431;SDS011;5772;50.940;6.782;2023-03-08T11:39:58;44.33;;;40.93;;
11431;SDS011;5772;50.940;6.782;2023-03-08T11:42:28;44.37;;;41.20;;
11431;SDS011;5772;50.940;6.782;2023-03-08T11:45:05;44.63;;;41.30;;
11431;SDS011;5772;50.940;6.782;2023-03-08T11:47:48;46.57;;;43.00;;
11431;SDS011;5772;50.940;6.782;2023-03-08T11:50:21;42.17;;;39.27;;
11431;SDS011;5772;50.940;6.782;2023-03-08T11:52:50;43.67;;;40.27;;
11431;SDS011;5772;50.940;6.782;2023-03-08T11:55:27;42.67;;;39.23;;
11431;SDS011;5772;50.940;6.782;2023-03-08T11:58:08;43.33;;;39.93;;
11431;SDS011;5772;50.940;6.782;2023-03-08T12:00:38;93.43;;;55.03;;
11431;SDS011;5772;50.940;6.782;2023-03-08T12:03:08;47.03;;;43.17;;
11431;SDS011;5772;50.940;6.782;2023-03-08T12:05:39;45.70;;;42.00;;
11431;SDS011;5772;50.940;6.782;2023-03-08T12:08:10;47.17;;;43.70;;
11431;SDS011;5772;50.940;6.782;2023-03-08T12:10:40;49.63;;;46.10;;
11431;SDS011;5772;50.940;6.782;2023-03-08T12:13:12;51.97;;;48.57;;
11431;SDS011;5772;50.940;6.782;2023-03-08T12:15:43;51.97;;;48.07;;
11431;SDS011;5772;50.940;6.782;2023-03-08T12:18:12;51.00;;;47.60;;
11431;SDS011;5772;50.940;6.782;2023-03-08T12:20:41;50.07;;;46.63;;
11431;SDS011;5772;50.940;6.782;2023-03-08T12:23:10;50.70;;;47.63;;
11431;SDS011;5772;50.940;6.782;2023-03-08T12:25:42;55.40;;;50.43;;
11431;SDS011;5772;50.940;6.782;2023-03-08T12:28:11;51.97;;;48.27;;
11431;SDS011;5772;50.940;6.782;2023-03-08T12:30:42;55.97;;;52.20;;
11431;SDS011;5772;50.940;6.782;2023-03-08T12:33:17;50.70;;;47.40;;
11431;SDS011;5772;50.940;6.782;2023-03-08T12:35:50;52.67;;;49.10;;
11431;SDS011;5772;50.940;6.782;2023-03-08T12:38:28;50.70;;;47.20;;
11431;SDS011;5772;50.940;6.782;2023-03-08T12:40:56;53.20;;;49.77;;
11431;SDS011;5772;50.940;6.782;2023-03-08T12:43:28;47.80;;;44.47;;
11431;SDS011;5772;50.940;6.782;2023-03-08T12:46:00;48.50;;;45.00;;
11431;SDS011;5772;50.940;6.782;2023-03-08T12:48:28;47.10;;;44.00;;
11431;SDS011;5772;50.940;6.782;2023-03-08T12:50:58;47.03;;;43.73;;
11431;SDS011;5772;50.940;6.782;2023-03-08T12:53:28;45.83;;;42.23;;
11431;SDS011;5772;50.940;6.782;2023-03-08T12:56:00;45.17;;;42.07;;
11431;SDS011;5772;50.940;6.782;2023-03-08T12:58:27;45.73;;;42.70;;
11431;SDS011;5772;50.940;6.782;2023-03-08T13:00:56;42.03;;;39.13;;
11431;SDS011;5772;50.940;6.782;2023-03-08T13:03:25;42.60;;;39.53;;
11431;SDS011;5772;50.940;6.782;2023-03-08T13:05:51;43.67;;;40.53;;
11431;SDS011;5772;50.940;6.782;2023-03-08T13:08:20;44.73;;;41.40;;
11431;SDS011;5772;50.940;6.782;2023-03-08T13:13:37;43.70;;;40.70;;
11431;SDS011;5772;50.940;6.782;2023-03-08T13:16:05;46.10;;;42.90;;
11431;SDS011;5772;50.940;6.782;2023-03-08T13:18:39;49.03;;;45.83;;
11431;SDS011;5772;50.940;6.782;2023-03-08T13:21:11;50.73;;;46.97;;
11431;SDS011;5772;50.940;6.782;2023-03-08T13:23:48;47.80;;;44.47;;
11431;SDS011;5772;50.940;6.782;2023-03-08T13:29:01;47.07;;;44.10;;
11431;SDS011;5772;50.940;6.782;2023-03-08T13:31:31;45.37;;;42.47;;
11431;SDS011;5772;50.940;6.782;2023-03-08T13:33:57;44.97;;;42.17;;
11431;SDS011;5772;50.940;6.782;2023-03-08T13:36:24;42.97;;;40.03;;
11431;SDS011;5772;50.940;6.782;2023-03-08T13:38:55;40.57;;;37.97;;
11431;SDS011;5772;50.940;6.782;2023-03-08T13:41:35;41.17;;;38.57;;
11431;SDS011;5772;50.940;6.782;2023-03-08T13:44:02;41.20;;;38.70;;
11431;SDS011;5772;50.940;6.782;2023-03-08T13:46:28;40.23;;;37.60;;
11431;SDS011;5772;50.940;6.782;2023-03-08T13:48:54;43.60;;;40.77;;
11431;SDS011;5772;50.940;6.782;2023-03-08T13:51:20;44.10;;;41.30;;
11431;SDS011;5772;50.940;6.782;2023-03-08T13:53:46;42.03;;;39.30;;
11431;SDS011;5772;50.940;6.782;2023-03-08T13:56:18;45.67;;;42.73;;
11431;SDS011;5772;50.940;6.782;2023-03-08T13:58:46;42.43;;;39.90;;
11431;SDS011;5772;50.940;6.782;2023-03-08T14:01:12;43.17;;;40.37;;
11431;SDS011;5772;50.940;6.782;2023-03-08T14:03:39;43.80;;;41.00;;
11431;SDS011;5772;50.940;6.782;2023-03-08T14:06:12;43.43;;;40.67;;
11431;SDS011;5772;50.940;6.782;2023-03-08T14:08:41;43.43;;;40.43;;
11431;SDS011;5772;50.940;6.782;2023-03-08T14:11:12;44.47;;;41.27;;
11431;SDS011;5772;50.940;6.782;2023-03-08T14:13:43;43.87;;;40.53;;
11431;SDS011;5772;50.940;6.782;2023-03-08T14:16:10;41.33;;;38.53;;
11431;SDS011;5772;50.940;6.782;2023-03-08T14:18:47;42.50;;;39.23;;
11431;SDS011;5772;50.940;6.782;2023-03-08T14:21:13;41.07;;;38.40;;
11431;SDS011;5772;50.940;6.782;2023-03-08T14:23:40;40.37;;;37.70;;
11431;SDS011;5772;50.940;6.782;2023-03-08T14:26:21;43.53;;;40.63;;
11431;SDS011;5772;50.940;6.782;2023-03-08T14:28:49;42.23;;;39.53;;
11431;SDS011;5772;50.940;6.782;2023-03-08T14:31:27;41.53;;;38.73;;
11431;SDS011;5772;50.940;6.782;2023-03-08T14:33:56;38.83;;;36.23;;
11431;SDS011;5772;50.940;6.782;2023-03-08T14:36:22;38.87;;;36.17;;
11431;SDS011;5772;50.940;6.782;2023-03-08T14:38:48;38.90;;;36.40;;
11431;SDS011;5772;50.940;6.782;2023-03-08T14:41:13;39.17;;;36.87;;
11431;SDS011;5772;50.940;6.782;2023-03-08T14:43:39;38.57;;;36.07;;